createdAt,value
2022-07-29T00:01:44.365Z,1.15
2022-07-29T00:04:13.082Z,1.05
2022-07-29T00:06:42.107Z,1.13
2022-07-29T00:09:10.136Z,1.20
2022-07-29T00:11:38.405Z,1.10
2022-07-29T00:14:07.076Z,1.40
2022-07-29T00:16:36.643Z,1.17
2022-07-29T00:19:05.298Z,1.30
2022-07-29T00:21:35.947Z,1.30
2022-07-29T00:24:04.276Z,1.40
2022-07-29T00:26:33.545Z,1.10
2022-07-29T00:29:32.320Z,2.20
2022-07-29T00:31:52.244Z,1.40
2022-07-29T00:34:37.593Z,1.20
2022-07-29T00:37:05.665Z,1.10
2022-07-29T00:39:35.917Z,1.63
2022-07-29T00:42:05.235Z,1.30
2022-07-29T00:44:38.186Z,1.45
2022-07-29T00:47:08.371Z,1.30
2022-07-29T00:49:36.572Z,1.02
2022-07-29T00:52:05.570Z,1.05
2022-07-29T00:54:34.481Z,0.90
2022-07-29T00:57:02.955Z,1.10
2022-07-29T00:59:35.517Z,1.10
2022-07-29T01:02:04.288Z,1.05
2022-07-29T01:04:34.603Z,1.00
2022-07-29T01:07:03.630Z,1.17
2022-07-29T01:09:43.126Z,1.00
2022-07-29T01:12:17.242Z,1.00
2022-07-29T01:14:45.680Z,1.00
2022-07-29T01:17:18.409Z,1.52
2022-07-29T01:19:58.165Z,0.90
2022-07-29T01:22:48.575Z,1.02
2022-07-29T01:25:42.600Z,1.30
2022-07-29T01:28:24.269Z,1.10
2022-07-29T01:30:57.476Z,2.05
2022-07-29T01:33:44.909Z,1.25
2022-07-29T01:36:16.705Z,1.20
2022-07-29T01:38:51.139Z,1.25
2022-07-29T01:41:21.693Z,1.23
2022-07-29T01:43:54.002Z,1.13
2022-07-29T01:46:29.409Z,1.10
2022-07-29T01:49:01.994Z,1.13
2022-07-29T01:51:33.810Z,1.00
2022-07-29T01:54:07.090Z,1.13
2022-07-29T01:56:36.879Z,1.40
2022-07-29T01:59:07.325Z,1.20
2022-07-29T02:01:37.942Z,0.95
2022-07-29T02:04:08.357Z,1.58
2022-07-29T02:06:39.463Z,1.25
2022-07-29T02:09:09.167Z,0.93
2022-07-29T02:11:39.847Z,1.20
2022-07-29T02:14:09.393Z,0.95
2022-07-29T02:16:40.806Z,1.23
2022-07-29T02:19:10.326Z,1.00
2022-07-29T02:21:38.374Z,1.20
2022-07-29T02:24:07.278Z,1.17
2022-07-29T02:26:36.199Z,1.23
2022-07-29T02:29:04.869Z,1.20
2022-07-29T02:31:37.567Z,1.02
2022-07-29T02:34:10.413Z,1.17
2022-07-29T02:36:39.063Z,1.20
2022-07-29T02:39:08.900Z,1.27
2022-07-29T02:41:43.427Z,1.25
2022-07-29T02:44:13.988Z,1.10
2022-07-29T02:46:48.240Z,1.48
2022-07-29T02:49:21.425Z,1.08
2022-07-29T02:51:55.472Z,1.27
2022-07-29T02:54:32.008Z,0.98
2022-07-29T02:57:02.759Z,1.13
2022-07-29T02:59:33.016Z,1.20
2022-07-29T03:02:02.364Z,1.30
2022-07-29T03:04:34.317Z,1.23
2022-07-29T03:07:03.405Z,1.10
2022-07-29T03:09:32.582Z,1.10
2022-07-29T03:12:00.889Z,1.00
2022-07-29T03:14:29.603Z,1.30
2022-07-29T03:16:58.015Z,1.65
2022-07-29T03:19:26.125Z,1.20
2022-07-29T03:21:58.567Z,1.10
2022-07-29T03:24:28.070Z,1.20
2022-07-29T03:26:57.707Z,1.30
2022-07-29T03:29:33.222Z,1.00
2022-07-29T03:32:07.270Z,1.08
2022-07-29T03:34:36.712Z,1.10
2022-07-29T03:37:06.967Z,1.42
2022-07-29T03:39:40.850Z,1.20
2022-07-29T03:42:10.634Z,1.40
2022-07-29T03:44:41.038Z,1.08
2022-07-29T03:47:11.780Z,1.27
2022-07-29T03:49:41.279Z,1.50
2022-07-29T03:52:11.185Z,1.10
2022-07-29T03:57:09.360Z,1.55
2022-07-29T03:59:38.933Z,1.10
2022-07-29T04:02:10.560Z,1.38
2022-07-29T04:04:39.090Z,1.50
2022-07-29T04:07:07.428Z,1.30
2022-07-29T04:09:36.807Z,0.90
2022-07-29T04:12:05.453Z,1.25
2022-07-29T04:14:34.200Z,1.20
2022-07-29T04:17:03.188Z,1.50
2022-07-29T04:19:31.374Z,1.10
2022-07-29T04:22:01.086Z,1.20
2022-07-29T04:24:29.872Z,1.80
2022-07-29T04:26:59.292Z,1.42
2022-07-29T04:29:27.313Z,1.33
2022-07-29T04:31:55.330Z,1.30
2022-07-29T04:34:23.333Z,1.40
2022-07-29T04:36:56.616Z,1.38
2022-07-29T04:39:24.698Z,1.30
2022-07-29T04:41:56.411Z,1.67
2022-07-29T04:44:28.452Z,1.35
2022-07-29T04:46:58.711Z,1.42
2022-07-29T04:49:27.186Z,1.52
2022-07-29T04:51:55.472Z,1.15
2022-07-29T04:54:23.520Z,1.42
2022-07-29T04:56:52.804Z,1.30
2022-07-29T04:59:20.863Z,1.40
2022-07-29T05:01:50.303Z,1.27
2022-07-29T05:04:18.865Z,1.25
2022-07-29T05:06:47.265Z,1.30
2022-07-29T05:09:15.254Z,1.38
2022-07-29T05:11:43.325Z,1.13
2022-07-29T05:14:11.348Z,1.27
2022-07-29T05:16:41.075Z,1.17
2022-07-29T05:19:14.186Z,1.40
2022-07-29T05:21:43.083Z,1.05
2022-07-29T05:24:11.079Z,1.40
2022-07-29T05:26:39.740Z,1.15
2022-07-29T05:29:07.849Z,0.85
2022-07-29T05:31:55.900Z,1.10
2022-07-29T05:34:26.044Z,1.10
2022-07-29T05:36:54.380Z,1.30
2022-07-29T05:39:22.645Z,1.40
2022-07-29T05:42:11.453Z,1.60
2022-07-29T05:44:39.933Z,1.40
2022-07-29T05:47:08.477Z,1.20
2022-07-29T05:49:37.979Z,1.42
2022-07-29T05:52:06.642Z,1.65
2022-07-29T05:54:34.725Z,1.35
2022-07-29T05:57:02.752Z,1.40
2022-07-29T05:59:31.018Z,1.80
2022-07-29T06:01:59.298Z,1.20
2022-07-29T06:04:27.443Z,1.35
2022-07-29T06:06:56.883Z,1.70
2022-07-29T06:09:25.065Z,1.30
2022-07-29T06:11:53.346Z,1.30
2022-07-29T06:14:21.434Z,1.20
2022-07-29T06:16:49.672Z,1.23
2022-07-29T06:19:17.883Z,1.20
2022-07-29T06:21:46.272Z,1.30
2022-07-29T06:24:16.837Z,1.35
2022-07-29T06:26:45.372Z,1.23
2022-07-29T06:29:13.648Z,1.23
2022-07-29T06:31:41.771Z,1.80
2022-07-29T06:34:09.815Z,1.50
2022-07-29T06:36:41.029Z,1.13
2022-07-29T06:39:10.487Z,1.23
2022-07-29T06:41:41.127Z,1.27
2022-07-29T06:44:11.910Z,1.40
2022-07-29T06:46:39.989Z,1.13
2022-07-29T06:49:08.154Z,0.90
2022-07-29T06:51:36.140Z,1.05
2022-07-29T06:54:06.394Z,1.17
2022-07-29T06:56:38.613Z,1.08
2022-07-29T06:59:09.986Z,1.27
2022-07-29T07:01:39.222Z,5.90
2022-07-29T07:04:09.498Z,1.50
2022-07-29T07:06:37.781Z,1.10
2022-07-29T07:09:05.825Z,1.08
2022-07-29T07:11:33.983Z,3.30
2022-07-29T07:14:03.827Z,1.10
2022-07-29T07:16:34.002Z,1.35
2022-07-29T07:19:02.682Z,1.10
2022-07-29T07:21:31.596Z,0.95
2022-07-29T07:24:00.389Z,1.10
2022-07-29T07:26:29.317Z,1.05
2022-07-29T07:28:57.372Z,1.10
2022-07-29T07:31:25.664Z,0.80
2022-07-29T07:33:55.381Z,1.08
2022-07-29T07:36:24.194Z,1.40
2022-07-29T07:38:52.232Z,1.13
2022-07-29T07:41:20.404Z,1.00
2022-07-29T07:43:48.648Z,2.10
2022-07-29T07:46:17.070Z,1.20
2022-07-29T07:48:45.409Z,2.90
2022-07-29T07:51:15.199Z,1.10
2022-07-29T07:56:12.710Z,0.88
2022-07-29T08:01:09.176Z,1.23
2022-07-29T08:03:37.732Z,1.10
2022-07-29T08:06:06.311Z,0.98
2022-07-29T08:08:35.864Z,0.80
2022-07-29T08:11:08.967Z,1.50
2022-07-29T08:13:38.771Z,1.10
2022-07-29T08:16:13.772Z,1.15
2022-07-29T08:18:43.369Z,1.00
2022-07-29T08:21:11.546Z,1.23
2022-07-29T08:23:59.677Z,1.30
2022-07-29T08:26:28.911Z,1.20
2022-07-29T08:28:56.903Z,1.30
2022-07-29T08:31:24.975Z,1.15
2022-07-29T08:33:53.028Z,1.27
2022-07-29T08:36:22.336Z,1.02
2022-07-29T08:38:51.964Z,1.15
2022-07-29T08:43:48.506Z,1.33
2022-07-29T08:46:16.776Z,1.08
2022-07-29T08:48:45.068Z,1.08
2022-07-29T08:51:16.774Z,1.30
2022-07-29T08:53:46.616Z,0.90
2022-07-29T08:56:17.801Z,1.30
2022-07-29T08:58:46.947Z,1.10
2022-07-29T09:01:36.245Z,1.15
2022-07-29T09:04:13.737Z,1.15
2022-07-29T09:06:46.903Z,1.02
2022-07-29T09:09:15.832Z,1.20
2022-07-29T09:11:45.672Z,2.80
2022-07-29T09:14:15.205Z,1.17
2022-07-29T09:16:53.609Z,1.85
2022-07-29T09:19:27.927Z,1.10
2022-07-29T09:22:00.262Z,1.50
2022-07-29T09:24:45.640Z,1.38
2022-07-29T09:27:23.485Z,1.13
2022-07-29T09:29:59.819Z,1.10
2022-07-29T09:32:28.953Z,1.23
2022-07-29T09:35:16.244Z,1.60
2022-07-29T09:37:44.606Z,0.90
2022-07-29T09:40:18.569Z,1.13
2022-07-29T09:42:48.384Z,1.15
2022-07-29T09:45:30.352Z,1.13
2022-07-29T09:48:01.330Z,1.38
2022-07-29T09:50:40.188Z,1.23
2022-07-29T09:53:10.342Z,1.50
2022-07-29T09:55:49.465Z,1.40
2022-07-29T09:58:19.993Z,1.52
2022-07-29T10:00:49.398Z,1.55
2022-07-29T10:03:18.189Z,1.45
2022-07-29T10:05:47.655Z,1.50
2022-07-29T10:08:15.674Z,1.73
2022-07-29T10:10:44.792Z,1.70
2022-07-29T10:13:16.352Z,1.38
2022-07-29T10:15:47.295Z,1.80
2022-07-29T10:18:18.431Z,2.10
2022-07-29T10:20:46.733Z,1.70
2022-07-29T10:23:14.991Z,1.17
2022-07-29T10:25:46.424Z,1.30
2022-07-29T10:28:16.708Z,1.35
2022-07-29T10:30:47.709Z,1.30
2022-07-29T10:33:31.665Z,1.20
2022-07-29T10:36:17.433Z,1.77
2022-07-29T10:39:03.258Z,1.48
2022-07-29T10:41:49.733Z,1.52
2022-07-29T10:44:22.914Z,1.55
2022-07-29T10:46:54.507Z,1.80
2022-07-29T10:49:25.874Z,1.70
2022-07-29T10:51:59.497Z,1.38
2022-07-29T10:54:54.684Z,1.40
2022-07-29T10:57:53.994Z,1.50
2022-07-29T11:00:34.885Z,1.42
2022-07-29T11:03:10.447Z,1.63
2022-07-29T11:05:56.148Z,1.58
2022-07-29T11:08:27.970Z,1.65
2022-07-29T11:11:44.084Z,1.95
2022-07-29T11:14:19.917Z,1.83
2022-07-29T11:17:06.804Z,1.60
2022-07-29T11:19:40.191Z,1.60
2022-07-29T11:22:12.008Z,1.77
2022-07-29T11:24:50.427Z,2.55
2022-07-29T11:27:21.191Z,1.90
2022-07-29T11:29:58.510Z,1.80
2022-07-29T11:32:37.378Z,2.40
2022-07-29T11:35:37.481Z,2.07
2022-07-29T11:38:28.019Z,1.77
2022-07-29T11:41:25.958Z,1.65
2022-07-29T11:43:56.333Z,1.70
2022-07-29T11:46:46.155Z,1.88
2022-07-29T11:49:15.552Z,1.55
2022-07-29T11:51:53.245Z,1.90
2022-07-29T11:54:27.797Z,1.90
2022-07-29T11:56:56.231Z,1.50
2022-07-29T11:59:33.044Z,1.65
2022-07-29T12:02:33.156Z,1.92
2022-07-29T12:07:03.392Z,1.88
2022-07-29T12:07:45.455Z,1.80
2022-07-29T12:10:19.785Z,1.90
2022-07-29T12:12:57.746Z,1.73
2022-07-29T12:15:45.710Z,1.90
2022-07-29T12:18:24.099Z,1.87
2022-07-29T12:21:03.361Z,1.85
2022-07-29T12:23:34.464Z,1.95
2022-07-29T12:26:07.487Z,1.80
2022-07-29T12:28:39.889Z,1.70
2022-07-29T12:31:08.501Z,2.00
2022-07-29T12:33:36.946Z,1.67
2022-07-29T12:36:07.222Z,1.88
2022-07-29T12:38:37.971Z,2.05
2022-07-29T12:41:06.166Z,2.58
2022-07-29T12:43:34.352Z,2.05
2022-07-29T12:46:14.977Z,1.90
2022-07-29T12:48:44.900Z,2.00
2022-07-29T12:51:15.473Z,2.25
2022-07-29T12:54:05.386Z,2.13
2022-07-29T12:56:42.571Z,2.03
2022-07-29T12:59:16.865Z,2.10
2022-07-29T13:01:45.386Z,2.38
2022-07-29T13:04:13.419Z,2.25
2022-07-29T13:06:46.001Z,2.17
2022-07-29T13:09:21.246Z,2.17
2022-07-29T13:11:51.682Z,2.15
2022-07-29T13:14:33.176Z,1.95
2022-07-29T13:17:07.763Z,2.00
2022-07-29T13:19:41.327Z,1.85
2022-07-29T13:22:09.940Z,1.92
2022-07-29T13:24:52.594Z,2.25
2022-07-29T13:27:22.105Z,1.95
2022-07-29T13:29:52.301Z,1.92
2022-07-29T13:32:28.606Z,1.98
2022-07-29T13:34:57.881Z,2.15
2022-07-29T13:37:26.919Z,2.10
2022-07-29T13:39:56.935Z,2.38
2022-07-29T13:42:25.795Z,1.85
2022-07-29T13:44:54.148Z,2.30
2022-07-29T13:47:22.649Z,2.25
2022-07-29T13:50:01.137Z,2.20
2022-07-29T13:52:29.355Z,2.13
2022-07-29T13:54:59.007Z,2.00
2022-07-29T13:57:27.137Z,2.20
2022-07-29T13:59:55.176Z,2.08
2022-07-29T14:02:25.386Z,2.20
2022-07-29T14:04:54.449Z,2.22
2022-07-29T14:07:23.192Z,2.35
2022-07-29T14:09:51.460Z,1.87
2022-07-29T14:12:21.039Z,1.90
2022-07-29T14:14:49.115Z,2.22
2022-07-29T14:17:17.510Z,1.85
2022-07-29T14:19:45.577Z,2.15
2022-07-29T14:22:13.571Z,1.90
2022-07-29T14:24:42.074Z,1.77
2022-07-29T14:27:11.167Z,1.92
2022-07-29T14:29:40.750Z,2.00
2022-07-29T14:37:07.344Z,1.92
2022-07-29T14:39:42.902Z,1.88
2022-07-29T14:42:13.037Z,2.17
2022-07-29T14:44:42.968Z,2.10
2022-07-29T14:47:13.666Z,1.90
2022-07-29T14:49:41.657Z,2.30
2022-07-29T14:52:09.666Z,2.17
2022-07-29T14:54:37.679Z,2.10
2022-07-29T14:57:05.815Z,2.20
2022-07-29T14:59:33.871Z,1.90
2022-07-29T15:02:03.801Z,2.00
2022-07-29T15:04:32.640Z,1.70
2022-07-29T15:07:00.659Z,2.25
2022-07-29T15:09:29.345Z,2.45
2022-07-29T15:11:57.552Z,1.70
2022-07-29T15:14:25.973Z,1.75
2022-07-29T15:16:54.178Z,2.42
2022-07-29T15:19:23.867Z,2.25
2022-07-29T15:21:51.884Z,2.08
2022-07-29T15:24:20.450Z,2.17
2022-07-29T15:26:49.029Z,2.15
2022-07-29T15:29:17.137Z,1.75
2022-07-29T15:31:47.106Z,2.22
2022-07-29T15:34:16.146Z,1.98
2022-07-29T15:36:53.502Z,1.70
2022-07-29T15:39:23.570Z,1.90
2022-07-29T15:41:51.933Z,1.80
2022-07-29T15:44:22.456Z,1.73
2022-07-29T15:47:08.057Z,1.90
2022-07-29T15:49:46.384Z,2.00
2022-07-29T15:52:16.978Z,2.40
2022-07-29T15:54:45.609Z,1.80
2022-07-29T15:57:14.163Z,2.30
2022-07-29T15:59:42.869Z,2.05
2022-07-29T16:02:11.197Z,2.00
2022-07-29T16:04:39.534Z,1.90
2022-07-29T16:07:07.809Z,2.00
2022-07-29T16:09:37.618Z,2.00
2022-07-29T16:14:44.405Z,1.88
2022-07-29T16:17:15.013Z,1.97
2022-07-29T16:19:44.180Z,2.15
2022-07-29T16:22:16.672Z,2.27
2022-07-29T16:24:46.389Z,2.72
2022-07-29T16:29:42.509Z,2.00
2022-07-29T16:32:10.840Z,2.25
2022-07-29T16:34:38.933Z,2.40
2022-07-29T16:37:07.304Z,2.45
2022-07-29T16:39:35.276Z,2.80
2022-07-29T16:42:05.664Z,2.15
2022-07-29T16:44:34.917Z,2.53
2022-07-29T16:47:04.490Z,2.47
2022-07-29T16:49:33.252Z,2.30
2022-07-29T16:52:01.555Z,2.38
2022-07-29T16:54:29.696Z,2.15
2022-07-29T16:57:00.638Z,2.35
2022-07-29T16:59:30.956Z,2.40
2022-07-29T17:02:02.776Z,2.42
2022-07-29T17:04:31.314Z,2.75
2022-07-29T17:06:59.991Z,3.08
2022-07-29T17:09:30.645Z,2.28
2022-07-29T17:11:58.795Z,2.65
2022-07-29T17:14:32.366Z,2.10
2022-07-29T17:17:03.511Z,2.40
2022-07-29T17:19:33.712Z,2.30
2022-07-29T17:22:12.618Z,2.25
2022-07-29T17:24:43.367Z,2.50
2022-07-29T17:27:11.401Z,2.50
2022-07-29T17:29:42.893Z,2.55
2022-07-29T17:32:12.164Z,2.50
2022-07-29T17:34:42.606Z,2.53
2022-07-29T17:37:12.499Z,2.28
2022-07-29T17:39:41.722Z,2.50
2022-07-29T17:42:11.167Z,2.28
2022-07-29T17:44:39.711Z,2.35
2022-07-29T17:47:10.685Z,2.50
2022-07-29T17:49:45.428Z,2.30
2022-07-29T17:52:13.406Z,3.00
2022-07-29T17:54:41.474Z,2.60
2022-07-29T17:57:09.455Z,2.67
2022-07-29T17:59:37.516Z,2.50
2022-07-29T18:02:05.595Z,3.10
2022-07-29T18:04:35.885Z,3.28
2022-07-29T18:07:03.881Z,3.60
2022-07-29T18:09:31.902Z,3.38
2022-07-29T18:11:59.932Z,3.30
2022-07-29T18:14:28.039Z,3.10
2022-07-29T18:16:56.409Z,3.50
2022-07-29T18:19:24.746Z,3.83
2022-07-29T18:21:59.295Z,3.90
2022-07-29T18:24:35.972Z,4.28
2022-07-29T18:27:05.683Z,4.75
2022-07-29T18:29:34.041Z,5.80
2022-07-29T18:32:06.006Z,6.75
2022-07-29T18:34:34.523Z,6.43
2022-07-29T18:37:03.938Z,6.25
2022-07-29T18:39:34.049Z,7.25
2022-07-29T18:42:04.107Z,7.72
2022-07-29T18:44:33.182Z,7.68
2022-07-29T18:47:12.063Z,7.88
2022-07-29T18:49:40.071Z,7.50
2022-07-29T18:52:09.504Z,7.80
2022-07-29T18:54:37.585Z,6.90
2022-07-29T18:57:54.409Z,7.00
2022-07-29T18:59:56.579Z,8.23
2022-07-29T19:02:25.223Z,8.85
2022-07-29T19:04:53.330Z,7.72
2022-07-29T19:07:25.581Z,7.53
2022-07-29T19:09:54.428Z,7.40
2022-07-29T19:12:22.367Z,7.47
2022-07-29T19:14:50.601Z,8.13
2022-07-29T19:17:18.628Z,7.82
2022-07-29T19:19:46.805Z,8.15
2022-07-29T19:22:15.563Z,8.57
2022-07-29T19:24:45.786Z,8.52
2022-07-29T19:27:13.776Z,7.40
2022-07-29T19:29:41.833Z,7.35
2022-07-29T19:32:09.875Z,8.07
2022-07-29T19:34:38.376Z,7.65
2022-07-29T19:37:06.581Z,8.10
2022-07-29T19:39:35.227Z,8.50
2022-07-29T19:42:05.563Z,8.25
2022-07-29T19:44:34.471Z,8.10
2022-07-29T19:47:02.570Z,7.53
2022-07-29T19:49:30.698Z,8.30
2022-07-29T19:51:58.691Z,8.07
2022-07-29T19:54:27.638Z,8.27
2022-07-29T19:56:55.859Z,7.85
2022-07-29T19:59:29.564Z,8.23
2022-07-29T20:01:57.932Z,8.60
2022-07-29T20:04:25.985Z,8.68
2022-07-29T20:06:56.521Z,7.85
2022-07-29T20:09:25.084Z,8.68
2022-07-29T20:11:53.134Z,7.93
2022-07-29T20:14:21.679Z,7.38
2022-07-29T20:16:53.716Z,7.90
2022-07-29T20:19:22.089Z,8.23
2022-07-29T20:21:50.782Z,7.55
2022-07-29T20:24:20.435Z,6.82
2022-07-29T20:26:48.690Z,6.90
2022-07-29T20:29:17.234Z,6.43
2022-07-29T20:31:45.732Z,6.72
2022-07-29T20:34:23.786Z,6.05
2022-07-29T20:36:51.796Z,7.20
2022-07-29T20:39:21.046Z,6.72
2022-07-29T20:41:49.466Z,7.63
2022-07-29T20:44:18.841Z,7.18
2022-07-29T20:46:48.780Z,6.78
2022-07-29T20:49:18.631Z,7.32
2022-07-29T20:51:48.139Z,7.30
2022-07-29T20:54:16.344Z,7.28
2022-07-29T20:56:44.489Z,7.32
2022-07-29T20:59:12.671Z,7.82
2022-07-29T21:01:41.392Z,8.23
2022-07-29T21:04:09.517Z,8.13
2022-07-29T21:06:37.553Z,8.88
2022-07-29T21:09:07.088Z,8.75
2022-07-29T21:11:44.007Z,8.75
2022-07-29T21:14:20.486Z,8.45
2022-07-29T21:16:48.548Z,8.57
2022-07-29T21:19:16.617Z,8.75
2022-07-29T21:21:44.823Z,8.30
2022-07-29T21:24:14.369Z,9.63
2022-07-29T21:26:47.253Z,8.80
2022-07-29T21:29:21.941Z,8.40
2022-07-29T21:31:49.903Z,9.02
2022-07-29T21:34:17.910Z,8.85
2022-07-29T21:36:48.682Z,8.50
2022-07-29T21:39:18.539Z,9.63
2022-07-29T21:41:46.532Z,7.70
2022-07-29T21:44:14.748Z,7.25
2022-07-29T21:46:42.882Z,7.47
2022-07-29T21:49:11.232Z,7.90
2022-07-29T21:51:40.288Z,7.55
2022-07-29T21:54:08.555Z,6.57
2022-07-29T21:56:37.960Z,6.65
2022-07-29T22:01:41.114Z,6.80
2022-07-29T22:04:09.444Z,6.30
2022-07-29T22:06:37.543Z,6.13
2022-07-29T22:09:05.718Z,7.10
2022-07-29T22:11:33.773Z,7.15
2022-07-29T22:14:03.252Z,7.20
2022-07-29T22:16:31.492Z,6.53
2022-07-29T22:18:59.800Z,7.03
2022-07-29T22:21:28.994Z,7.15
2022-07-29T22:23:56.985Z,7.35
2022-07-29T22:26:25.129Z,6.97
2022-07-29T22:28:53.136Z,6.28
2022-07-29T22:31:22.580Z,6.40
2022-07-29T22:33:51.152Z,6.10
2022-07-29T22:36:19.597Z,5.90
2022-07-29T22:38:51.612Z,6.00
2022-07-29T22:41:20.122Z,5.85
2022-07-29T22:43:48.132Z,6.57
2022-07-29T22:46:16.277Z,5.90
2022-07-29T22:48:45.793Z,6.13
2022-07-29T22:51:13.843Z,5.65
2022-07-29T22:53:41.907Z,6.28
2022-07-29T22:56:10.180Z,6.35
2022-07-29T22:58:38.191Z,5.43
2022-07-29T23:01:06.378Z,6.20
2022-07-29T23:03:34.553Z,5.90
2022-07-29T23:06:04.087Z,5.78
2022-07-29T23:08:32.205Z,6.22
2022-07-29T23:11:00.218Z,6.30
2022-07-29T23:13:28.403Z,5.80
2022-07-29T23:15:56.467Z,6.88
2022-07-29T23:18:24.642Z,6.53
2022-07-29T23:20:52.693Z,6.55
2022-07-29T23:23:22.118Z,7.13
2022-07-29T23:25:50.228Z,7.20
2022-07-29T23:28:18.403Z,7.53
2022-07-29T23:30:46.459Z,7.90
2022-07-29T23:33:14.506Z,7.68
2022-07-29T23:35:42.534Z,7.43
2022-07-29T23:38:10.618Z,7.78
2022-07-29T23:40:40.075Z,7.72
2022-07-29T23:43:08.502Z,7.82
2022-07-29T23:45:42.395Z,7.00
2022-07-29T23:48:13.138Z,7.55
2022-07-29T23:50:41.206Z,8.07
2022-07-29T23:53:09.244Z,7.55
2022-07-29T23:55:39.257Z,8.43
2022-07-29T23:58:08.870Z,9.32
